»·PEaware :: UAL733 KSFO-KSEA

UAL733 :: KSFO-KSEA

FLIGHT INFORMATION

Flight Status: Arrived
Operator:
United Airlines
More flights by this operator :: More flights under this callsign
Pilot: Kent M. (15083)
Aircraft: AIRBUS A320
(A320)
More flights by this aircraft type
Origin: KSFO San Francisco Intl
United States
Destination: KSEA Seattle-Tacoma Intl
United States
More flights between these airports :: More routes between these airports
Route: TRUKN2 DEDHD RBL BTG HAWKZ7
File this flight plan on PilotEdge
Remarks:
Altitude:
(Current/Filed)
38,000ft
Speed:
(Current/Filed)
460kts
Departed: 06-Feb-21 09:46 AM
Arrived: 06-Feb-21 11:38 AM
Distance/Time
Traveled:
589nm/1:52
Distance/Time
To Go:
Arrived

Flight Plot

Page will automatically refresh every two minutes.

Flight plan parsing failed; only flown route is shown


Map Options




Map Legend


Flown Route
Filed Route
Departure Airport
Arrival Airport
Navaid (VOR, NDB)
Fix

Horizontal Profiles

Position Reports

Time Latitude Longitude Heading Altitude Ground
Speed
06-Feb-21 09:07 37.619179 -122.384919 117 27ft 0kts
06-Feb-21 09:08 37.619179 -122.384919 117 27ft 0kts
06-Feb-21 09:09 37.619179 -122.384919 117 27ft 0kts
06-Feb-21 09:10 37.619179 -122.384919 117 27ft 0kts
06-Feb-21 09:11 37.619179 -122.384919 117 27ft 0kts
06-Feb-21 09:12 37.619179 -122.384919 117 27ft 0kts
06-Feb-21 09:13 37.619179 -122.384919 117 27ft 0kts
06-Feb-21 09:14 37.619179 -122.384919 117 27ft 0kts
06-Feb-21 09:16 37.619179 -122.384919 117 27ft 0kts
06-Feb-21 09:17 37.619179 -122.384919 117 27ft 0kts
06-Feb-21 09:18 37.619179 -122.384919 117 27ft 0kts
06-Feb-21 09:19 37.619179 -122.384919 117 27ft 0kts
06-Feb-21 09:20 37.619179 -122.384919 117 27ft 0kts
06-Feb-21 09:21 37.619179 -122.384919 117 27ft 0kts
06-Feb-21 09:22 37.619179 -122.384919 117 27ft 0kts
06-Feb-21 09:23 37.619179 -122.384919 117 27ft 0kts
06-Feb-21 09:24 37.619179 -122.384919 117 27ft 0kts
06-Feb-21 09:25 37.619179 -122.384919 117 27ft 0kts
06-Feb-21 09:26 37.619179 -122.384919 117 27ft 0kts
06-Feb-21 09:27 37.619179 -122.384919 117 27ft 0kts
06-Feb-21 09:28 37.619179 -122.384919 117 27ft 0kts
06-Feb-21 09:29 37.619179 -122.384919 117 27ft 0kts
06-Feb-21 09:30 37.619198 -122.385342 355 27ft 2kts
06-Feb-21 09:31 37.619148 -122.385336 340 27ft 0kts
06-Feb-21 09:32 37.619149 -122.385336 340 27ft 0kts
06-Feb-21 09:33 37.619249 -122.385383 338 27ft 1kts
06-Feb-21 09:34 37.619657 -122.385607 336 27ft 1kts
06-Feb-21 09:35 37.620329 -122.385488 30 27ft 1kts
06-Feb-21 09:36 37.620798 -122.384812 101 27ft 7kts
06-Feb-21 09:37 37.618921 -122.380337 126 27ft 6kts
06-Feb-21 09:38 37.616588 -122.379630 200 27ft 8kts
06-Feb-21 09:39 37.611776 -122.382864 206 27ft 25kts
06-Feb-21 09:40 37.608226 -122.384923 179 27ft 13kts
06-Feb-21 09:41 37.606335 -122.384196 126 27ft 11kts
06-Feb-21 09:43 37.606794 -122.382155 45 27ft 1kts
06-Feb-21 09:44 37.606813 -122.382130 46 27ft 0kts
06-Feb-21 09:45 37.606703 -122.380809 42 27ft 2kts
06-Feb-21 09:46 37.631287 -122.363925 36 1397ft 164kts
06-Feb-21 09:47 37.662081 -122.312670 47 4179ft 218kts
06-Feb-21 09:48 37.703561 -122.242252 53 7689ft 271kts
06-Feb-21 09:49 37.769652 -122.204758 3 11315ft 289kts
06-Feb-21 09:50 37.856821 -122.192113 6 14059ft 329kts
06-Feb-21 09:51 37.949861 -122.176631 5 17023ft 348kts
06-Feb-21 09:52 38.048223 -122.160467 5 19218ft 361kts
06-Feb-21 09:53 38.148753 -122.143881 5 20871ft 370kts
06-Feb-21 09:53 38.234915 -122.129608 5 22881ft 380kts
06-Feb-21 09:55 38.360168 -122.113854 355 25383ft 392kts
06-Feb-21 09:56 38.470171 -122.122420 354 27278ft 402kts
06-Feb-21 09:56 38.564486 -122.128504 354 28754ft 410kts
06-Feb-21 09:58 38.699274 -122.137891 354 30651ft 420kts
06-Feb-21 09:58 38.797403 -122.144668 354 31881ft 428kts
06-Feb-21 09:59 38.915394 -122.152823 353 33763ft 422kts
06-Feb-21 10:01 39.051706 -122.162300 353 35750ft 418kts
06-Feb-21 10:01 39.148302 -122.169037 352 37035ft 415kts
06-Feb-21 10:02 39.263375 -122.177096 352 38255ft 415kts
06-Feb-21 10:03 39.378417 -122.185190 352 38254ft 414kts
06-Feb-21 10:04 39.493726 -122.193325 352 38257ft 414kts
06-Feb-21 10:05 39.608518 -122.201438 352 38265ft 413kts
06-Feb-21 10:06 39.723760 -122.209617 352 38272ft 413kts
06-Feb-21 10:07 39.838596 -122.217794 352 38281ft 413kts
06-Feb-21 10:08 39.953480 -122.225999 352 38213ft 413kts
06-Feb-21 10:09 40.068387 -122.234232 352 38198ft 413kts
06-Feb-21 10:10 40.183444 -122.241411 353 38210ft 414kts
06-Feb-21 10:11 40.298698 -122.247944 352 38228ft 414kts
06-Feb-21 10:12 40.413762 -122.254589 353 38248ft 413kts
06-Feb-21 10:13 40.528766 -122.261283 352 38256ft 412kts
06-Feb-21 10:14 40.643475 -122.267968 352 38207ft 412kts
06-Feb-21 10:15 40.757914 -122.274646 352 38211ft 411kts
06-Feb-21 10:16 40.871866 -122.281365 352 38200ft 411kts
06-Feb-21 10:17 40.985944 -122.288051 352 38282ft 408kts
06-Feb-21 10:18 41.099282 -122.294774 352 38279ft 407kts
06-Feb-21 10:19 41.211136 -122.301394 352 38275ft 406kts
06-Feb-21 10:20 41.323880 -122.308091 352 38319ft 405kts
06-Feb-21 10:21 41.436569 -122.314823 352 38329ft 404kts
06-Feb-21 10:22 41.548661 -122.321546 352 38359ft 402kts
06-Feb-21 10:23 41.660526 -122.328265 352 38328ft 402kts
06-Feb-21 10:24 41.772364 -122.335014 352 38330ft 401kts
06-Feb-21 10:25 41.883806 -122.341754 352 38350ft 400kts
06-Feb-21 10:26 41.994823 -122.348513 352 38380ft 400kts
06-Feb-21 10:27 42.106586 -122.355315 352 38314ft 402kts
06-Feb-21 10:28 42.218272 -122.362152 352 38355ft 402kts
06-Feb-21 10:29 42.330824 -122.369063 352 38374ft 404kts
06-Feb-21 10:30 42.442857 -122.375967 352 38406ft 404kts
06-Feb-21 10:31 42.555458 -122.382935 352 38406ft 404kts
06-Feb-21 10:32 42.667769 -122.389899 352 38370ft 403kts
06-Feb-21 10:33 42.779848 -122.396887 352 38346ft 403kts
06-Feb-21 10:34 42.892161 -122.403906 352 38336ft 404kts
06-Feb-21 10:35 43.004376 -122.410945 352 38392ft 403kts
06-Feb-21 10:36 43.116363 -122.418003 352 38405ft 403kts
06-Feb-21 10:37 43.228175 -122.425063 351 38398ft 401kts
06-Feb-21 10:38 43.339842 -122.432135 351 38317ft 400kts
06-Feb-21 10:39 43.451059 -122.439243 351 38311ft 401kts
06-Feb-21 10:40 43.562541 -122.446350 351 38368ft 400kts
06-Feb-21 10:41 43.673705 -122.453495 351 38389ft 399kts
06-Feb-21 10:42 43.784831 -122.460653 351 38382ft 399kts
06-Feb-21 10:43 43.895569 -122.467800 351 38365ft 398kts
06-Feb-21 10:44 44.006223 -122.474980 351 38314ft 398kts
06-Feb-21 10:45 44.116467 -122.482135 350 38363ft 393kts
06-Feb-21 10:46 44.225429 -122.489248 350 38282ft 387kts
06-Feb-21 10:47 44.333546 -122.496407 350 38329ft 394kts
06-Feb-21 10:48 44.443602 -122.503606 350 38327ft 395kts
06-Feb-21 10:49 44.553377 -122.510861 350 38302ft 395kts
06-Feb-21 10:50 44.663219 -122.518169 350 38275ft 393kts
06-Feb-21 10:51 44.771769 -122.525347 349 38259ft 388kts
06-Feb-21 10:52 44.879267 -122.532575 349 38293ft 390kts
06-Feb-21 10:53 44.988432 -122.539838 349 38304ft 392kts
06-Feb-21 10:54 45.097476 -122.547201 349 38334ft 391kts
06-Feb-21 10:55 45.205904 -122.554490 348 38341ft 390kts
06-Feb-21 10:56 45.310055 -122.561600 348 36324ft 391kts
06-Feb-21 10:57 45.419322 -122.568887 348 32959ft 388kts
06-Feb-21 10:58 45.524914 -122.575988 347 29919ft 361kts
06-Feb-21 10:59 45.621894 -122.582776 346 27517ft 342kts
06-Feb-21 11:00 45.716592 -122.589306 346 25111ft 338kts
06-Feb-21 11:01 45.808678 -122.606367 339 23475ft 332kts
06-Feb-21 11:02 45.898827 -122.628801 340 22482ft 325kts
06-Feb-21 11:03 45.987485 -122.650850 340 22251ft 324kts
06-Feb-21 11:04 46.075663 -122.672785 339 22254ft 320kts
06-Feb-21 11:05 46.163623 -122.691172 341 20706ft 322kts
06-Feb-21 11:06 46.249445 -122.707974 341 19298ft 302kts
06-Feb-21 11:07 46.332769 -122.723028 346 18297ft 301kts
06-Feb-21 11:08 46.416176 -122.725561 347 17306ft 298kts
06-Feb-21 11:09 46.499569 -122.728663 347 16306ft 298kts
06-Feb-21 11:10 46.582238 -122.731625 347 15311ft 296kts
06-Feb-21 11:11 46.664236 -122.734624 348 14317ft 296kts
06-Feb-21 11:12 46.745036 -122.737453 348 13307ft 283kts
06-Feb-21 11:13 46.821636 -122.698927 29 12323ft 327kts
06-Feb-21 11:14 46.891485 -122.614220 26 12044ft 324kts
06-Feb-21 11:15 46.962132 -122.549443 4 11881ft 275kts
06-Feb-21 11:16 47.036352 -122.519375 6 10879ft 279kts
06-Feb-21 11:17 47.109509 -122.494106 356 10048ft 273kts
06-Feb-21 11:18 47.185550 -122.481006 357 10046ft 276kts
06-Feb-21 11:19 47.257629 -122.469936 357 8945ft 279kts
06-Feb-21 11:21 47.331819 -122.458358 357 8447ft 256kts
06-Feb-21 11:22 47.402709 -122.455424 351 7389ft 253kts
06-Feb-21 11:23 47.472465 -122.455174 352 6654ft 240kts
06-Feb-21 11:24 47.539226 -122.455892 352 5658ft 241kts
06-Feb-21 11:25 47.605537 -122.458709 352 4572ft 242kts
06-Feb-21 11:26 47.672630 -122.464031 352 4005ft 241kts
06-Feb-21 11:27 47.738337 -122.457702 33 3997ft 239kts
06-Feb-21 11:28 47.759671 -122.369180 85 4066ft 225kts
06-Feb-21 11:29 47.761598 -122.278381 125 4008ft 213kts
06-Feb-21 11:30 47.720216 -122.280665 234 4035ft 187kts
06-Feb-21 11:31 47.674667 -122.305975 185 4024ft 170kts
06-Feb-21 11:32 47.635695 -122.306222 186 3754ft 117kts
06-Feb-21 11:33 47.603697 -122.306523 184 3165ft 113kts
06-Feb-21 11:33 47.577615 -122.306746 184 2667ft 112kts
06-Feb-21 11:35 47.540968 -122.307072 183 1994ft 113kts
06-Feb-21 11:35 47.514480 -122.307308 183 1466ft 114kts
06-Feb-21 11:37 47.477561 -122.307758 183 766ft 118kts
06-Feb-21 11:38 47.454906 -122.307887 180 447ft 14kts
06-Feb-21 11:38 47.452227 -122.306809 136 447ft 11kts
06-Feb-21 11:39 47.451424 -122.306265 181 447ft 12kts
06-Feb-21 11:40 47.445047 -122.306342 180 447ft 30kts
06-Feb-21 11:41 47.439897 -122.305569 88 447ft 9kts
06-Feb-21 11:42 47.441146 -122.300945 45 447ft 1kts
06-Feb-21 11:43 47.441178 -122.300897 45 447ft 0kts
06-Feb-21 11:44 47.441178 -122.300897 45 447ft 0kts
06-Feb-21 11:45 47.441178 -122.300897 45 447ft 0kts
06-Feb-21 11:46 47.441178 -122.300897 45 447ft 0kts
06-Feb-21 11:47 47.441178 -122.300897 45 447ft 0kts
06-Feb-21 11:48 47.441178 -122.300897 45 447ft 0kts
06-Feb-21 11:49 47.441178 -122.300897 45 447ft 0kts
06-Feb-21 11:50 47.441178 -122.300897 45 447ft 0kts
06-Feb-21 11:51 47.441178 -122.300897 45 447ft 0kts

Navigation Log

Ident Type
Flight plan parsing failed, navigation log unavailable